Forside
METAR-TAF:

METAR-TAF

Lufthavne :

Billund Lufthavn

Billund, Danmark

Breddekreds: 55-44N, længdekreds: 009-10E, højde: 75 m

Aktuelle vejr

Denne rapport blev lavet for 32 minutter siden, kl. 12:50 UTC
Vind 5 kt fra vestnordvest, varierende mellem sydsydvest og nord
Temperatur 16°C
Fugtighed 59%
Tryk 1012 hPa
Sigt 10 km eller mere

METAR: EKBI 091250Z AUTO 29005KT 210V360 9999 BKN064/// 16/08 Q1012

Tid: 15:22 (13:22 UTC)

Vejrudsigter

Denne rapport blev lavet for 2 timer og 21 minutter siden, kl. 11:01 UTC
Foreløbig gælder fra 09 på 12 UTC til 10 på 12 UTC
Vind 8 kt fra vestnordvest
Sigt 10 km eller mere
Spredte skyer i en højde af 3000 ft

TAF: EKBI 091101Z 0912/1012 30008KT 9999 SCT030

Vejrobservationer og prognoser fra mere end 4000 lufthavne (METAR og TAF).

De gule og røde prikker repræsenterer de meteorologiske stationer.

Flyt musen over at se navnet på stationen.

Så klik over at se vejr observationer og prognoser.

At skifte det kort: Klik på de grønne knapper med et sort kors for at zoome ind; på den grønne knap med en bindestreg for at zoome ud; eller på de grønne pile for tilstødende kort.


METAR-TAF: